Airfield :
LOGIN :

Register | Disclaimer

   EN    FR    IT 

 










Legend :    VFR   Marginal VFR   IFR   Intensive IFR   Very Intensive IFR
Visi :
Ceiling :
>= 8 km
>= 3000ft
5 to 8 km
1000 to 3000 ft
1500m to 5 km
500 to 1000 ft
800 to 1500m
200 to 500 ft
< 800m
< 200 ft
Symbols :   Thunderstorms  Fog  Heavy snow  Heavy precipitations  Wind > 20 kt
SIGMETs :     Misc.  Thunderstorms  Icing  Turbulence  Mountain Waves  Volcanic Ashes






- Airport Elevation : 65 ft
- IATA code : ADA


LTAF - Adana

CURRENT METAR :
  • 112020Z 03003KT CAVOK 18/09 Q1017 NOSIG RMK RWY23 05002KT

EXPIRED METARs :
  • 111950Z 05005KT CAVOK 18/09 Q1017 NOSIG RMK RWY23 06003KT
  • 111920Z 05005KT CAVOK 19/09 Q1017 NOSIG RMK RWY23 07003KT
  • 111850Z 09002KT CAVOK 18/08 Q1017 NOSIG RMK RWY23 08002KT
  • 111820Z 05004KT CAVOK 19/07 Q1017 NOSIG RMK RWY23 00000KT
  • 111750Z 06004KT CAVOK 19/08 Q1017 NOSIG RMK RWY23 07002KT

TAF TAF LTAF
Valid from the 11 at 18:00 until the 12 at 18:00 UTC


111640Z 1118/1218 VRB02KT CAVOK



MET'MAP, your aeronautical weather chart ! - Copyright ORBIFLY December 2007 - Disclaimer

ORBIFLY MET'MAP TEAM :

Programming & Development : Alexandra Zaïnal
Concept & Development : Baudouin d'Aumeries
Co-Development & Prog : Marc-Olivier Méhu
Technical & hardware support : Manuel Goepfert

Contact : metmap@orbifly.com




SOURCES & CREDITS :

   NOAA